sensor_id;sensor_type;location;lat;lon;timestamp;P1;durP1;ratioP1;P2;durP2;ratioP2
828;SDS011;396;52.558;13.188;2022-10-18T00:01:50;6.80;;;3.47;;
828;SDS011;396;52.558;13.188;2022-10-18T00:04:17;6.00;;;2.77;;
828;SDS011;396;52.558;13.188;2022-10-18T00:06:43;7.73;;;2.90;;
828;SDS011;396;52.558;13.188;2022-10-18T00:09:10;6.47;;;2.50;;
828;SDS011;396;52.558;13.188;2022-10-18T00:11:37;6.17;;;2.70;;
828;SDS011;396;52.558;13.188;2022-10-18T00:14:05;7.33;;;3.20;;
828;SDS011;396;52.558;13.188;2022-10-18T00:16:32;8.67;;;3.43;;
828;SDS011;396;52.558;13.188;2022-10-18T00:18:58;6.53;;;3.20;;
828;SDS011;396;52.558;13.188;2022-10-18T00:21:25;6.03;;;3.07;;
828;SDS011;396;52.558;13.188;2022-10-18T00:23:52;5.63;;;2.63;;
828;SDS011;396;52.558;13.188;2022-10-18T00:26:19;6.47;;;2.67;;
828;SDS011;396;52.558;13.188;2022-10-18T00:28:49;7.37;;;2.90;;
828;SDS011;396;52.558;13.188;2022-10-18T00:31:18;6.03;;;2.80;;
828;SDS011;396;52.558;13.188;2022-10-18T00:33:48;7.20;;;2.90;;
828;SDS011;396;52.558;13.188;2022-10-18T00:36:16;5.27;;;2.60;;
828;SDS011;396;52.558;13.188;2022-10-18T00:38:44;6.73;;;3.10;;
828;SDS011;396;52.558;13.188;2022-10-18T00:41:12;6.43;;;2.90;;
828;SDS011;396;52.558;13.188;2022-10-18T00:43:50;9.17;;;3.43;;
828;SDS011;396;52.558;13.188;2022-10-18T00:46:22;7.90;;;3.70;;
828;SDS011;396;52.558;13.188;2022-10-18T00:48:49;7.40;;;3.30;;
828;SDS011;396;52.558;13.188;2022-10-18T00:51:18;7.90;;;3.57;;
828;SDS011;396;52.558;13.188;2022-10-18T00:53:46;8.20;;;3.73;;
828;SDS011;396;52.558;13.188;2022-10-18T00:56:13;6.03;;;3.10;;
828;SDS011;396;52.558;13.188;2022-10-18T01:05:05;8.17;;;3.70;;
828;SDS011;396;52.558;13.188;2022-10-18T01:07:35;10.87;;;3.70;;
828;SDS011;396;52.558;13.188;2022-10-18T01:10:15;10.77;;;3.20;;
828;SDS011;396;52.558;13.188;2022-10-18T01:12:54;7.43;;;3.20;;
828;SDS011;396;52.558;13.188;2022-10-18T01:15:33;7.00;;;3.07;;
828;SDS011;396;52.558;13.188;2022-10-18T01:18:07;9.73;;;3.53;;
828;SDS011;396;52.558;13.188;2022-10-18T01:20:51;8.63;;;3.43;;
828;SDS011;396;52.558;13.188;2022-10-18T01:23:31;8.00;;;3.80;;
828;SDS011;396;52.558;13.188;2022-10-18T01:26:16;8.20;;;3.70;;
828;SDS011;396;52.558;13.188;2022-10-18T01:28:55;7.33;;;3.50;;
828;SDS011;396;52.558;13.188;2022-10-18T01:31:29;7.80;;;3.80;;
828;SDS011;396;52.558;13.188;2022-10-18T01:34:00;6.70;;;3.57;;
828;SDS011;396;52.558;13.188;2022-10-18T01:36:30;7.30;;;3.73;;
828;SDS011;396;52.558;13.188;2022-10-18T01:39:00;9.13;;;4.07;;
828;SDS011;396;52.558;13.188;2022-10-18T01:41:30;7.30;;;4.10;;
828;SDS011;396;52.558;13.188;2022-10-18T01:43:59;13.27;;;4.20;;
828;SDS011;396;52.558;13.188;2022-10-18T01:46:29;9.70;;;4.73;;
828;SDS011;396;52.558;13.188;2022-10-18T01:48:56;8.90;;;3.90;;
828;SDS011;396;52.558;13.188;2022-10-18T01:51:24;12.17;;;4.90;;
828;SDS011;396;52.558;13.188;2022-10-18T01:53:51;10.67;;;6.30;;
828;SDS011;396;52.558;13.188;2022-10-18T01:56:20;11.27;;;5.00;;
828;SDS011;396;52.558;13.188;2022-10-18T01:58:55;12.17;;;5.67;;
828;SDS011;396;52.558;13.188;2022-10-18T02:01:30;7.33;;;4.10;;
828;SDS011;396;52.558;13.188;2022-10-18T02:04:05;11.50;;;4.80;;
828;SDS011;396;52.558;13.188;2022-10-18T02:06:41;9.13;;;4.80;;
828;SDS011;396;52.558;13.188;2022-10-18T02:09:11;7.97;;;3.87;;
828;SDS011;396;52.558;13.188;2022-10-18T02:11:43;7.70;;;4.33;;
828;SDS011;396;52.558;13.188;2022-10-18T02:14:13;10.50;;;5.67;;
828;SDS011;396;52.558;13.188;2022-10-18T02:16:45;12.23;;;5.90;;
828;SDS011;396;52.558;13.188;2022-10-18T02:19:14;9.60;;;4.70;;
828;SDS011;396;52.558;13.188;2022-10-18T02:21:46;8.20;;;4.43;;
828;SDS011;396;52.558;13.188;2022-10-18T02:24:14;7.50;;;4.77;;
828;SDS011;396;52.558;13.188;2022-10-18T02:26:43;14.70;;;4.40;;
828;SDS011;396;52.558;13.188;2022-10-18T02:29:10;10.17;;;5.13;;
828;SDS011;396;52.558;13.188;2022-10-18T02:31:38;9.77;;;4.30;;
828;SDS011;396;52.558;13.188;2022-10-18T02:34:14;10.20;;;5.00;;
828;SDS011;396;52.558;13.188;2022-10-18T02:36:45;9.33;;;3.70;;
828;SDS011;396;52.558;13.188;2022-10-18T02:39:16;9.60;;;3.30;;
828;SDS011;396;52.558;13.188;2022-10-18T02:41:46;9.47;;;4.50;;
828;SDS011;396;52.558;13.188;2022-10-18T02:44:12;7.47;;;3.40;;
828;SDS011;396;52.558;13.188;2022-10-18T02:46:39;8.33;;;3.90;;
828;SDS011;396;52.558;13.188;2022-10-18T02:49:07;7.53;;;3.40;;
828;SDS011;396;52.558;13.188;2022-10-18T02:51:34;6.37;;;3.97;;
828;SDS011;396;52.558;13.188;2022-10-18T02:54:00;8.00;;;3.67;;
828;SDS011;396;52.558;13.188;2022-10-18T02:56:27;6.47;;;3.10;;
828;SDS011;396;52.558;13.188;2022-10-18T02:58:53;8.27;;;4.23;;
828;SDS011;396;52.558;13.188;2022-10-18T03:01:20;7.33;;;3.43;;
828;SDS011;396;52.558;13.188;2022-10-18T03:03:46;7.13;;;3.43;;
828;SDS011;396;52.558;13.188;2022-10-18T03:06:14;10.33;;;4.10;;
828;SDS011;396;52.558;13.188;2022-10-18T03:08:40;6.63;;;3.87;;
828;SDS011;396;52.558;13.188;2022-10-18T03:11:07;9.53;;;3.10;;
828;SDS011;396;52.558;13.188;2022-10-18T03:13:33;7.23;;;3.10;;
828;SDS011;396;52.558;13.188;2022-10-18T03:16:00;6.77;;;3.20;;
828;SDS011;396;52.558;13.188;2022-10-18T03:18:27;7.47;;;3.20;;
828;SDS011;396;52.558;13.188;2022-10-18T03:20:53;8.20;;;3.80;;
828;SDS011;396;52.558;13.188;2022-10-18T03:23:21;6.30;;;2.97;;
828;SDS011;396;52.558;13.188;2022-10-18T03:25:47;7.30;;;3.17;;
828;SDS011;396;52.558;13.188;2022-10-18T03:28:14;7.30;;;3.20;;
828;SDS011;396;52.558;13.188;2022-10-18T03:30:40;8.00;;;3.50;;
828;SDS011;396;52.558;13.188;2022-10-18T03:33:07;7.40;;;2.90;;
828;SDS011;396;52.558;13.188;2022-10-18T03:35:33;8.17;;;2.73;;
828;SDS011;396;52.558;13.188;2022-10-18T03:38:00;7.20;;;3.20;;
828;SDS011;396;52.558;13.188;2022-10-18T03:40:28;7.07;;;3.60;;
828;SDS011;396;52.558;13.188;2022-10-18T03:42:54;7.60;;;3.40;;
828;SDS011;396;52.558;13.188;2022-10-18T03:45:21;6.47;;;3.10;;
828;SDS011;396;52.558;13.188;2022-10-18T03:47:47;7.80;;;4.03;;
828;SDS011;396;52.558;13.188;2022-10-18T03:50:14;8.13;;;3.93;;
828;SDS011;396;52.558;13.188;2022-10-18T03:52:40;9.00;;;3.70;;
828;SDS011;396;52.558;13.188;2022-10-18T03:55:07;6.57;;;3.00;;
828;SDS011;396;52.558;13.188;2022-10-18T03:57:35;6.90;;;3.13;;
828;SDS011;396;52.558;13.188;2022-10-18T04:00:02;7.13;;;3.10;;
828;SDS011;396;52.558;13.188;2022-10-18T04:02:29;7.10;;;3.40;;
828;SDS011;396;52.558;13.188;2022-10-18T04:04:55;8.40;;;3.70;;
828;SDS011;396;52.558;13.188;2022-10-18T04:07:23;9.57;;;3.63;;
828;SDS011;396;52.558;13.188;2022-10-18T04:09:49;6.67;;;3.17;;
828;SDS011;396;52.558;13.188;2022-10-18T04:12:16;6.80;;;3.27;;
828;SDS011;396;52.558;13.188;2022-10-18T04:14:43;8.03;;;3.30;;
828;SDS011;396;52.558;13.188;2022-10-18T04:17:10;5.80;;;2.80;;
828;SDS011;396;52.558;13.188;2022-10-18T04:19:36;7.83;;;3.30;;
828;SDS011;396;52.558;13.188;2022-10-18T04:22:03;8.50;;;3.40;;
828;SDS011;396;52.558;13.188;2022-10-18T04:24:29;6.13;;;3.17;;
828;SDS011;396;52.558;13.188;2022-10-18T04:26:56;11.87;;;3.77;;
828;SDS011;396;52.558;13.188;2022-10-18T04:29:22;7.93;;;3.30;;
828;SDS011;396;52.558;13.188;2022-10-18T04:31:50;10.93;;;2.90;;
828;SDS011;396;52.558;13.188;2022-10-18T04:34:16;8.93;;;4.10;;
828;SDS011;396;52.558;13.188;2022-10-18T04:36:43;10.27;;;3.57;;
828;SDS011;396;52.558;13.188;2022-10-18T04:39:09;7.97;;;3.90;;
828;SDS011;396;52.558;13.188;2022-10-18T04:41:36;7.13;;;2.90;;
828;SDS011;396;52.558;13.188;2022-10-18T04:44:02;7.80;;;3.30;;
828;SDS011;396;52.558;13.188;2022-10-18T04:46:29;7.60;;;3.63;;
828;SDS011;396;52.558;13.188;2022-10-18T04:48:57;8.73;;;3.80;;
828;SDS011;396;52.558;13.188;2022-10-18T04:51:25;6.20;;;3.00;;
828;SDS011;396;52.558;13.188;2022-10-18T04:53:51;8.93;;;3.67;;
828;SDS011;396;52.558;13.188;2022-10-18T04:56:18;8.83;;;3.50;;
828;SDS011;396;52.558;13.188;2022-10-18T04:58:44;6.63;;;3.20;;
828;SDS011;396;52.558;13.188;2022-10-18T05:01:11;9.30;;;4.00;;
828;SDS011;396;52.558;13.188;2022-10-18T05:03:38;9.27;;;3.83;;
828;SDS011;396;52.558;13.188;2022-10-18T05:06:05;7.87;;;3.63;;
828;SDS011;396;52.558;13.188;2022-10-18T05:08:32;8.57;;;4.00;;
828;SDS011;396;52.558;13.188;2022-10-18T05:11:00;13.70;;;4.20;;
828;SDS011;396;52.558;13.188;2022-10-18T05:13:27;8.77;;;3.80;;
828;SDS011;396;52.558;13.188;2022-10-18T05:15:54;14.83;;;4.63;;
828;SDS011;396;52.558;13.188;2022-10-18T05:18:23;12.33;;;5.07;;
828;SDS011;396;52.558;13.188;2022-10-18T05:20:49;9.87;;;5.07;;
828;SDS011;396;52.558;13.188;2022-10-18T05:23:17;10.13;;;5.10;;
828;SDS011;396;52.558;13.188;2022-10-18T05:25:44;12.20;;;4.83;;
828;SDS011;396;52.558;13.188;2022-10-18T05:28:10;13.07;;;5.33;;
828;SDS011;396;52.558;13.188;2022-10-18T05:30:37;10.07;;;4.70;;
828;SDS011;396;52.558;13.188;2022-10-18T05:33:03;9.00;;;4.77;;
828;SDS011;396;52.558;13.188;2022-10-18T05:35:30;9.20;;;4.27;;
828;SDS011;396;52.558;13.188;2022-10-18T05:37:56;8.80;;;4.57;;
828;SDS011;396;52.558;13.188;2022-10-18T05:40:24;10.20;;;4.70;;
828;SDS011;396;52.558;13.188;2022-10-18T05:42:51;8.57;;;4.13;;
828;SDS011;396;52.558;13.188;2022-10-18T05:45:17;8.00;;;4.23;;
828;SDS011;396;52.558;13.188;2022-10-18T05:47:44;7.80;;;3.93;;
828;SDS011;396;52.558;13.188;2022-10-18T05:50:10;9.67;;;4.60;;
828;SDS011;396;52.558;13.188;2022-10-18T05:52:37;9.80;;;4.30;;
828;SDS011;396;52.558;13.188;2022-10-18T05:55:04;11.10;;;3.97;;
828;SDS011;396;52.558;13.188;2022-10-18T05:57:32;8.23;;;4.10;;
828;SDS011;396;52.558;13.188;2022-10-18T05:59:58;7.57;;;3.90;;
828;SDS011;396;52.558;13.188;2022-10-18T06:02:25;7.70;;;4.07;;
828;SDS011;396;52.558;13.188;2022-10-18T06:04:51;8.23;;;4.00;;
828;SDS011;396;52.558;13.188;2022-10-18T06:07:18;6.87;;;3.70;;
828;SDS011;396;52.558;13.188;2022-10-18T06:09:44;9.13;;;4.33;;
828;SDS011;396;52.558;13.188;2022-10-18T06:12:11;6.97;;;3.40;;
828;SDS011;396;52.558;13.188;2022-10-18T06:14:38;9.77;;;4.60;;
828;SDS011;396;52.558;13.188;2022-10-18T06:17:05;9.00;;;4.57;;
828;SDS011;396;52.558;13.188;2022-10-18T06:19:31;8.77;;;4.20;;
828;SDS011;396;52.558;13.188;2022-10-18T06:21:58;9.20;;;4.37;;
828;SDS011;396;52.558;13.188;2022-10-18T06:24:24;8.47;;;4.30;;
828;SDS011;396;52.558;13.188;2022-10-18T06:26:51;9.10;;;4.30;;
828;SDS011;396;52.558;13.188;2022-10-18T06:29:18;8.23;;;3.83;;
828;SDS011;396;52.558;13.188;2022-10-18T06:31:46;8.40;;;4.13;;
828;SDS011;396;52.558;13.188;2022-10-18T06:34:12;9.37;;;4.27;;
828;SDS011;396;52.558;13.188;2022-10-18T06:36:38;9.40;;;3.90;;
828;SDS011;396;52.558;13.188;2022-10-18T06:39:05;7.97;;;3.97;;
828;SDS011;396;52.558;13.188;2022-10-18T06:41:31;8.50;;;4.43;;
828;SDS011;396;52.558;13.188;2022-10-18T06:43:58;7.80;;;3.73;;
828;SDS011;396;52.558;13.188;2022-10-18T06:46:31;8.90;;;4.20;;
828;SDS011;396;52.558;13.188;2022-10-18T06:48:58;10.43;;;4.57;;
828;SDS011;396;52.558;13.188;2022-10-18T06:51:25;6.57;;;3.70;;
828;SDS011;396;52.558;13.188;2022-10-18T06:53:51;9.03;;;4.07;;
828;SDS011;396;52.558;13.188;2022-10-18T06:56:18;7.70;;;3.90;;
828;SDS011;396;52.558;13.188;2022-10-18T06:58:44;7.87;;;3.77;;
828;SDS011;396;52.558;13.188;2022-10-18T07:01:11;10.87;;;4.83;;
828;SDS011;396;52.558;13.188;2022-10-18T07:03:39;9.00;;;5.20;;
828;SDS011;396;52.558;13.188;2022-10-18T07:06:08;7.90;;;4.13;;
828;SDS011;396;52.558;13.188;2022-10-18T07:08:37;7.30;;;3.27;;
828;SDS011;396;52.558;13.188;2022-10-18T07:11:05;9.20;;;4.30;;
828;SDS011;396;52.558;13.188;2022-10-18T07:13:32;10.40;;;5.40;;
828;SDS011;396;52.558;13.188;2022-10-18T07:16:00;12.83;;;7.07;;
828;SDS011;396;52.558;13.188;2022-10-18T07:18:27;13.40;;;6.70;;
828;SDS011;396;52.558;13.188;2022-10-18T07:20:54;10.83;;;5.60;;
828;SDS011;396;52.558;13.188;2022-10-18T07:23:22;10.90;;;5.80;;
828;SDS011;396;52.558;13.188;2022-10-18T07:25:48;9.33;;;4.93;;
828;SDS011;396;52.558;13.188;2022-10-18T07:28:15;10.93;;;4.60;;
828;SDS011;396;52.558;13.188;2022-10-18T07:30:41;8.10;;;4.23;;
828;SDS011;396;52.558;13.188;2022-10-18T07:33:08;12.20;;;4.10;;
828;SDS011;396;52.558;13.188;2022-10-18T07:35:34;8.50;;;3.87;;
828;SDS011;396;52.558;13.188;2022-10-18T07:38:00;8.30;;;3.70;;
828;SDS011;396;52.558;13.188;2022-10-18T07:40:28;10.93;;;4.63;;
828;SDS011;396;52.558;13.188;2022-10-18T07:42:55;8.23;;;3.80;;
828;SDS011;396;52.558;13.188;2022-10-18T07:45:21;9.90;;;4.37;;
828;SDS011;396;52.558;13.188;2022-10-18T07:47:52;8.23;;;4.30;;
828;SDS011;396;52.558;13.188;2022-10-18T07:50:19;7.83;;;3.37;;
828;SDS011;396;52.558;13.188;2022-10-18T07:52:46;8.73;;;3.80;;
828;SDS011;396;52.558;13.188;2022-10-18T07:55:12;8.40;;;4.20;;
828;SDS011;396;52.558;13.188;2022-10-18T07:57:40;14.40;;;4.53;;
828;SDS011;396;52.558;13.188;2022-10-18T08:00:07;8.10;;;4.20;;
828;SDS011;396;52.558;13.188;2022-10-18T08:02:35;9.70;;;3.90;;
828;SDS011;396;52.558;13.188;2022-10-18T08:05:02;8.77;;;3.70;;
828;SDS011;396;52.558;13.188;2022-10-18T08:07:28;11.53;;;4.33;;
828;SDS011;396;52.558;13.188;2022-10-18T08:09:56;10.20;;;4.23;;
828;SDS011;396;52.558;13.188;2022-10-18T08:12:23;7.60;;;3.40;;
828;SDS011;396;52.558;13.188;2022-10-18T08:14:51;10.77;;;5.03;;
828;SDS011;396;52.558;13.188;2022-10-18T08:17:17;11.77;;;4.20;;
828;SDS011;396;52.558;13.188;2022-10-18T08:19:43;8.77;;;4.20;;
828;SDS011;396;52.558;13.188;2022-10-18T08:22:10;8.27;;;3.90;;
828;SDS011;396;52.558;13.188;2022-10-18T08:24:36;6.70;;;3.20;;
828;SDS011;396;52.558;13.188;2022-10-18T08:27:03;8.93;;;3.87;;
828;SDS011;396;52.558;13.188;2022-10-18T08:29:29;7.93;;;3.43;;
828;SDS011;396;52.558;13.188;2022-10-18T08:31:57;8.77;;;4.60;;
828;SDS011;396;52.558;13.188;2022-10-18T08:34:23;8.07;;;3.57;;
828;SDS011;396;52.558;13.188;2022-10-18T08:36:50;7.70;;;4.30;;
828;SDS011;396;52.558;13.188;2022-10-18T08:39:16;9.10;;;3.60;;
828;SDS011;396;52.558;13.188;2022-10-18T08:41:45;9.47;;;3.60;;
828;SDS011;396;52.558;13.188;2022-10-18T08:44:21;9.67;;;4.23;;
828;SDS011;396;52.558;13.188;2022-10-18T08:46:50;9.60;;;3.57;;
828;SDS011;396;52.558;13.188;2022-10-18T08:49:23;8.30;;;3.73;;
828;SDS011;396;52.558;13.188;2022-10-18T08:51:53;10.37;;;4.43;;
828;SDS011;396;52.558;13.188;2022-10-18T08:54:21;9.63;;;5.03;;
828;SDS011;396;52.558;13.188;2022-10-18T08:56:55;7.60;;;3.50;;
828;SDS011;396;52.558;13.188;2022-10-18T08:59:24;8.70;;;3.77;;
828;SDS011;396;52.558;13.188;2022-10-18T09:01:55;8.10;;;4.13;;
828;SDS011;396;52.558;13.188;2022-10-18T09:04:33;8.07;;;3.50;;
828;SDS011;396;52.558;13.188;2022-10-18T09:07:14;7.40;;;3.23;;
828;SDS011;396;52.558;13.188;2022-10-18T09:09:50;12.80;;;3.50;;
828;SDS011;396;52.558;13.188;2022-10-18T09:12:28;7.93;;;3.47;;
828;SDS011;396;52.558;13.188;2022-10-18T09:15:05;8.87;;;4.10;;
828;SDS011;396;52.558;13.188;2022-10-18T09:17:41;8.07;;;3.57;;
828;SDS011;396;52.558;13.188;2022-10-18T09:20:21;7.73;;;3.77;;
828;SDS011;396;52.558;13.188;2022-10-18T09:22:54;14.97;;;4.20;;
828;SDS011;396;52.558;13.188;2022-10-18T09:25:23;7.77;;;4.03;;
828;SDS011;396;52.558;13.188;2022-10-18T09:27:53;7.83;;;4.70;;
828;SDS011;396;52.558;13.188;2022-10-18T09:30:26;12.37;;;5.33;;
828;SDS011;396;52.558;13.188;2022-10-18T09:33:02;8.60;;;3.70;;
828;SDS011;396;52.558;13.188;2022-10-18T09:35:41;11.80;;;4.30;;
828;SDS011;396;52.558;13.188;2022-10-18T09:38:12;8.10;;;4.20;;
828;SDS011;396;52.558;13.188;2022-10-18T09:40:45;10.43;;;4.53;;
828;SDS011;396;52.558;13.188;2022-10-18T09:43:17;17.23;;;4.90;;
828;SDS011;396;52.558;13.188;2022-10-18T09:45:47;11.90;;;4.50;;
828;SDS011;396;52.558;13.188;2022-10-18T09:48:17;8.00;;;3.87;;
828;SDS011;396;52.558;13.188;2022-10-18T09:50:51;13.17;;;4.80;;
828;SDS011;396;52.558;13.188;2022-10-18T09:53:24;17.20;;;6.10;;
828;SDS011;396;52.558;13.188;2022-10-18T09:55:58;11.57;;;4.87;;
828;SDS011;396;52.558;13.188;2022-10-18T09:58:29;8.90;;;4.07;;
828;SDS011;396;52.558;13.188;2022-10-18T10:01:05;9.23;;;3.90;;
828;SDS011;396;52.558;13.188;2022-10-18T10:03:33;9.30;;;4.17;;
828;SDS011;396;52.558;13.188;2022-10-18T10:06:02;11.30;;;4.80;;
828;SDS011;396;52.558;13.188;2022-10-18T10:08:41;10.70;;;4.20;;
828;SDS011;396;52.558;13.188;2022-10-18T10:11:24;8.83;;;3.50;;
828;SDS011;396;52.558;13.188;2022-10-18T10:13:55;8.97;;;4.37;;
828;SDS011;396;52.558;13.188;2022-10-18T10:16:22;11.07;;;5.60;;
828;SDS011;396;52.558;13.188;2022-10-18T10:18:51;8.97;;;4.50;;
828;SDS011;396;52.558;13.188;2022-10-18T10:21:20;8.97;;;4.60;;
828;SDS011;396;52.558;13.188;2022-10-18T10:23:50;11.77;;;3.33;;
828;SDS011;396;52.558;13.188;2022-10-18T10:26:20;15.30;;;4.47;;
828;SDS011;396;52.558;13.188;2022-10-18T10:28:48;8.80;;;3.97;;
828;SDS011;396;52.558;13.188;2022-10-18T10:31:16;14.67;;;4.77;;
828;SDS011;396;52.558;13.188;2022-10-18T10:33:56;9.80;;;3.90;;
828;SDS011;396;52.558;13.188;2022-10-18T10:36:25;8.47;;;4.47;;
828;SDS011;396;52.558;13.188;2022-10-18T10:39:02;8.87;;;4.87;;
828;SDS011;396;52.558;13.188;2022-10-18T10:41:29;11.53;;;5.70;;
828;SDS011;396;52.558;13.188;2022-10-18T10:43:56;7.90;;;3.60;;
828;SDS011;396;52.558;13.188;2022-10-18T10:46:23;7.93;;;3.90;;
828;SDS011;396;52.558;13.188;2022-10-18T10:48:59;9.43;;;5.00;;
828;SDS011;396;52.558;13.188;2022-10-18T10:51:29;9.37;;;4.80;;
828;SDS011;396;52.558;13.188;2022-10-18T10:53:59;9.07;;;4.70;;
828;SDS011;396;52.558;13.188;2022-10-18T10:56:28;14.90;;;4.63;;
828;SDS011;396;52.558;13.188;2022-10-18T10:58:57;10.93;;;4.67;;
828;SDS011;396;52.558;13.188;2022-10-18T11:01:32;9.10;;;5.07;;
828;SDS011;396;52.558;13.188;2022-10-18T11:04:00;8.10;;;3.50;;
828;SDS011;396;52.558;13.188;2022-10-18T11:06:34;10.33;;;4.83;;
828;SDS011;396;52.558;13.188;2022-10-18T11:09:12;7.33;;;3.67;;
828;SDS011;396;52.558;13.188;2022-10-18T11:12:00;8.60;;;4.20;;
828;SDS011;396;52.558;13.188;2022-10-18T11:14:34;9.13;;;4.43;;
828;SDS011;396;52.558;13.188;2022-10-18T11:17:09;9.70;;;4.07;;
828;SDS011;396;52.558;13.188;2022-10-18T11:19:46;8.30;;;4.47;;
828;SDS011;396;52.558;13.188;2022-10-18T11:22:26;6.70;;;3.40;;
828;SDS011;396;52.558;13.188;2022-10-18T11:24:58;10.20;;;4.00;;
828;SDS011;396;52.558;13.188;2022-10-18T11:27:25;8.13;;;3.97;;
828;SDS011;396;52.558;13.188;2022-10-18T11:30:01;9.30;;;3.70;;
828;SDS011;396;52.558;13.188;2022-10-18T11:32:40;9.97;;;4.57;;
828;SDS011;396;52.558;13.188;2022-10-18T11:35:21;10.73;;;4.43;;
828;SDS011;396;52.558;13.188;2022-10-18T11:38:04;8.67;;;4.40;;
828;SDS011;396;52.558;13.188;2022-10-18T11:40:43;9.83;;;3.90;;
828;SDS011;396;52.558;13.188;2022-10-18T11:43:20;9.87;;;4.50;;
828;SDS011;396;52.558;13.188;2022-10-18T11:45:51;8.47;;;4.00;;
828;SDS011;396;52.558;13.188;2022-10-18T11:48:39;10.43;;;4.73;;
828;SDS011;396;52.558;13.188;2022-10-18T11:51:18;8.73;;;4.13;;
828;SDS011;396;52.558;13.188;2022-10-18T11:53:57;9.70;;;4.10;;
828;SDS011;396;52.558;13.188;2022-10-18T11:56:37;11.40;;;3.70;;
828;SDS011;396;52.558;13.188;2022-10-18T11:59:16;9.57;;;3.83;;
828;SDS011;396;52.558;13.188;2022-10-18T12:01:56;9.80;;;5.23;;
828;SDS011;396;52.558;13.188;2022-10-18T12:04:40;8.20;;;3.53;;
828;SDS011;396;52.558;13.188;2022-10-18T12:07:11;9.27;;;3.33;;
828;SDS011;396;52.558;13.188;2022-10-18T12:09:43;7.63;;;3.83;;
828;SDS011;396;52.558;13.188;2022-10-18T12:12:13;10.77;;;4.53;;
828;SDS011;396;52.558;13.188;2022-10-18T12:14:43;10.00;;;4.10;;
828;SDS011;396;52.558;13.188;2022-10-18T12:17:15;12.13;;;5.00;;
828;SDS011;396;52.558;13.188;2022-10-18T12:19:46;9.53;;;3.40;;
828;SDS011;396;52.558;13.188;2022-10-18T12:22:15;7.60;;;4.00;;
828;SDS011;396;52.558;13.188;2022-10-18T12:24:47;7.47;;;4.33;;
828;SDS011;396;52.558;13.188;2022-10-18T12:27:14;7.27;;;3.20;;
828;SDS011;396;52.558;13.188;2022-10-18T12:29:43;12.70;;;4.40;;
828;SDS011;396;52.558;13.188;2022-10-18T12:32:16;11.50;;;4.97;;
828;SDS011;396;52.558;13.188;2022-10-18T12:34:46;9.43;;;4.30;;
828;SDS011;396;52.558;13.188;2022-10-18T12:40:21;10.73;;;4.70;;
828;SDS011;396;52.558;13.188;2022-10-18T12:42:50;10.47;;;4.30;;
828;SDS011;396;52.558;13.188;2022-10-18T12:45:21;9.03;;;4.30;;
828;SDS011;396;52.558;13.188;2022-10-18T12:47:51;11.50;;;4.80;;
828;SDS011;396;52.558;13.188;2022-10-18T12:50:24;10.80;;;4.57;;
828;SDS011;396;52.558;13.188;2022-10-18T12:53:00;8.00;;;4.53;;
828;SDS011;396;52.558;13.188;2022-10-18T12:55:34;9.90;;;4.80;;
828;SDS011;396;52.558;13.188;2022-10-18T12:58:04;10.20;;;4.97;;
828;SDS011;396;52.558;13.188;2022-10-18T13:00:50;9.80;;;4.43;;
828;SDS011;396;52.558;13.188;2022-10-18T13:06:19;9.90;;;4.77;;
828;SDS011;396;52.558;13.188;2022-10-18T13:08:46;9.67;;;4.10;;
828;SDS011;396;52.558;13.188;2022-10-18T13:14:24;10.63;;;5.03;;
828;SDS011;396;52.558;13.188;2022-10-18T13:17:03;8.63;;;4.53;;
828;SDS011;396;52.558;13.188;2022-10-18T13:19:43;9.07;;;4.17;;
828;SDS011;396;52.558;13.188;2022-10-18T13:22:24;8.87;;;3.77;;
828;SDS011;396;52.558;13.188;2022-10-18T13:25:03;8.67;;;4.43;;
828;SDS011;396;52.558;13.188;2022-10-18T13:27:41;7.57;;;3.70;;
828;SDS011;396;52.558;13.188;2022-10-18T13:33:18;13.97;;;4.87;;
828;SDS011;396;52.558;13.188;2022-10-18T13:35:54;9.13;;;4.43;;
828;SDS011;396;52.558;13.188;2022-10-18T13:41:11;11.83;;;5.30;;
828;SDS011;396;52.558;13.188;2022-10-18T13:49:47;12.73;;;5.47;;
828;SDS011;396;52.558;13.188;2022-10-18T13:52:38;8.30;;;3.60;;
828;SDS011;396;52.558;13.188;2022-10-18T13:55:25;9.17;;;4.30;;
828;SDS011;396;52.558;13.188;2022-10-18T13:58:06;10.53;;;5.60;;
828;SDS011;396;52.558;13.188;2022-10-18T14:00:48;9.40;;;4.73;;
828;SDS011;396;52.558;13.188;2022-10-18T14:03:28;9.80;;;4.70;;
828;SDS011;396;52.558;13.188;2022-10-18T14:06:05;9.67;;;4.80;;
828;SDS011;396;52.558;13.188;2022-10-18T14:08:34;9.17;;;4.13;;
828;SDS011;396;52.558;13.188;2022-10-18T14:11:06;10.87;;;5.20;;
828;SDS011;396;52.558;13.188;2022-10-18T14:13:42;9.20;;;4.50;;
828;SDS011;396;52.558;13.188;2022-10-18T14:16:26;10.60;;;4.80;;
828;SDS011;396;52.558;13.188;2022-10-18T14:19:01;10.90;;;5.33;;
828;SDS011;396;52.558;13.188;2022-10-18T14:21:36;10.37;;;5.50;;
828;SDS011;396;52.558;13.188;2022-10-18T14:24:09;15.17;;;6.17;;
828;SDS011;396;52.558;13.188;2022-10-18T14:26:42;14.90;;;6.13;;
828;SDS011;396;52.558;13.188;2022-10-18T14:29:14;12.30;;;5.47;;
828;SDS011;396;52.558;13.188;2022-10-18T14:31:43;13.00;;;5.00;;
828;SDS011;396;52.558;13.188;2022-10-18T14:34:17;11.50;;;4.13;;
828;SDS011;396;52.558;13.188;2022-10-18T14:36:44;12.43;;;5.10;;
828;SDS011;396;52.558;13.188;2022-10-18T14:39:16;12.60;;;4.57;;
828;SDS011;396;52.558;13.188;2022-10-18T14:41:49;17.47;;;5.10;;
828;SDS011;396;52.558;13.188;2022-10-18T14:44:17;10.77;;;4.13;;
828;SDS011;396;52.558;13.188;2022-10-18T14:46:47;9.80;;;5.17;;
828;SDS011;396;52.558;13.188;2022-10-18T14:49:15;8.77;;;4.53;;
828;SDS011;396;52.558;13.188;2022-10-18T14:51:44;7.87;;;4.33;;
828;SDS011;396;52.558;13.188;2022-10-18T14:54:13;11.10;;;4.50;;
828;SDS011;396;52.558;13.188;2022-10-18T14:56:41;13.43;;;5.13;;
828;SDS011;396;52.558;13.188;2022-10-18T14:59:10;8.33;;;4.87;;
828;SDS011;396;52.558;13.188;2022-10-18T15:01:41;13.33;;;4.43;;
828;SDS011;396;52.558;13.188;2022-10-18T15:04:19;7.80;;;4.10;;
828;SDS011;396;52.558;13.188;2022-10-18T15:06:47;10.40;;;5.30;;
828;SDS011;396;52.558;13.188;2022-10-18T15:09:13;13.83;;;4.67;;
828;SDS011;396;52.558;13.188;2022-10-18T15:11:45;10.90;;;5.73;;
828;SDS011;396;52.558;13.188;2022-10-18T15:14:13;8.50;;;4.90;;
828;SDS011;396;52.558;13.188;2022-10-18T15:16:43;9.80;;;5.90;;
828;SDS011;396;52.558;13.188;2022-10-18T15:19:25;13.10;;;5.60;;
828;SDS011;396;52.558;13.188;2022-10-18T15:21:54;12.33;;;5.37;;
828;SDS011;396;52.558;13.188;2022-10-18T15:24:27;8.93;;;4.87;;
828;SDS011;396;52.558;13.188;2022-10-18T15:26:57;9.40;;;4.90;;
828;SDS011;396;52.558;13.188;2022-10-18T15:29:29;12.30;;;5.50;;
828;SDS011;396;52.558;13.188;2022-10-18T15:32:02;21.27;;;6.20;;
828;SDS011;396;52.558;13.188;2022-10-18T15:34:33;11.90;;;5.83;;
828;SDS011;396;52.558;13.188;2022-10-18T15:37:00;14.73;;;6.30;;
828;SDS011;396;52.558;13.188;2022-10-18T15:39:42;12.27;;;5.30;;
828;SDS011;396;52.558;13.188;2022-10-18T15:44:59;14.43;;;4.53;;
828;SDS011;396;52.558;13.188;2022-10-18T15:47:26;12.13;;;5.80;;
828;SDS011;396;52.558;13.188;2022-10-18T15:49:54;9.57;;;5.20;;
828;SDS011;396;52.558;13.188;2022-10-18T15:52:32;13.10;;;5.33;;
828;SDS011;396;52.558;13.188;2022-10-18T15:55:02;13.80;;;5.60;;
828;SDS011;396;52.558;13.188;2022-10-18T15:58:09;9.60;;;4.97;;
828;SDS011;396;52.558;13.188;2022-10-18T16:00:37;8.13;;;4.17;;
828;SDS011;396;52.558;13.188;2022-10-18T16:03:06;10.80;;;4.80;;
828;SDS011;396;52.558;13.188;2022-10-18T16:05:34;10.83;;;5.53;;
828;SDS011;396;52.558;13.188;2022-10-18T16:08:01;8.60;;;4.70;;
828;SDS011;396;52.558;13.188;2022-10-18T16:10:28;11.30;;;5.73;;
828;SDS011;396;52.558;13.188;2022-10-18T16:12:54;10.20;;;4.73;;
828;SDS011;396;52.558;13.188;2022-10-18T16:15:21;12.30;;;5.07;;